• Join FlightAware (Why Join?)
  • Login
  • US Flag 
12:33PM EDT


 

Airport Tracker/Info


-or-


 

Live Flight TrackerFlight Track Log ✈ N143DE ✈ 29-Jun-2013 ✈ KTRI - KLRO

Flight Track Log - Related Links

Times and Time Zones

All times are in EDT time to prevent confusion due to time zone crossing. See the N143DE flight status page for this flight to view local times or setup timezone preferences in your user account.

Time Position Orientation Groundspeed Altitude Reporting Facility
EDT Latitude Longitude Course Direction KTS MPH feet Rate Location/Type
12:33PM 36.4108 -82.4392 178° South 154 177 4,900  Level Atlanta Center
12:34PM 36.3628 -82.4300 171° South 165 190 6,700 1,800 Climbing Atlanta Center
12:35PM 36.3147 -82.4231 173° South 165 190 8,500 1,800 Climbing Atlanta Center
12:36PM 36.2644 -82.4139 172° South 180 207 10,300 1,680 Climbing Atlanta Center
12:37PM 36.2164 -82.3994 166° South 180 207 11,900 1,380 Climbing Atlanta Center
12:38PM 36.1571 -82.1628 175° South  Level Estimated
12:38PM 36.1719 -82.3617 146° Southeast 186 214 13,100  Level Atlanta Center
12:39PM 36.1233 -82.3189 145° Southeast 205 236 14,000 900 Climbing Atlanta Center
12:40PM 36.0750 -82.2817 148° Southeast 216 249 14,900 900 Climbing Atlanta Center
12:41PM 36.0222 -82.2392 147° Southeast 216 249 15,800 960 Climbing Atlanta Center
12:42PM 35.9756 -82.1964 143° Southeast 216 249 16,900 1,020 Climbing Atlanta Center
12:43PM 35.9269 -82.1564 146° Southeast 216 249 17,900 1,080 Climbing Atlanta Center
12:44PM 35.8783 -82.1167 146° Southeast 210 242 19,100 960 Climbing Atlanta Center
12:45PM 35.8300 -82.0794 148° Southeast 204 235 19,900 900 Climbing Atlanta Center
12:46PM 35.7856 -82.0419 146° Southeast 207 238 20,900 900 Climbing Atlanta Center
12:47PM 35.7411 -82.0047 146° Southeast 202 232 21,800 840 Climbing Atlanta Center
12:48PM 35.6944 -81.9700 149° Southeast 196 226 22,600 660 Climbing Atlanta Center
12:49PM 35.6503 -81.9356 148° Southeast 191 220 23,200 660 Climbing Atlanta Center
12:50PM 35.6036 -81.8983 141° Southeast 191 220 24,000 780 Climbing Atlanta Center
12:51PM 35.5942 -81.8900 141° Southeast  Level Estimated
12:51PM 35.5611 -81.8611 145° Southeast 191 220 24,800  Level Atlanta Center
12:52PM 35.5231 -81.8314 148° Southeast 186 214 25,100 120 Climbing Atlanta Center
12:53PM 35.4703 -81.7947 150° Southeast 202 232 25,100  Level Atlanta Center
12:54PM 35.4172 -81.7503 146° Southeast 219 252 25,100  Level Atlanta Center
12:55PM 35.3622 -81.7058 147° Southeast 234 269 25,100  Level Atlanta Center
12:56PM 35.3050 -81.6592 146° Southeast 247 284 25,100  Level Atlanta Center
12:57PM 35.2478 -81.6125 146° Southeast 247 284 25,100  Level Atlanta Center
12:58PM 35.1906 -81.5658 146° Southeast 247 284 25,100  Level Atlanta Center
12:59PM 35.1353 -81.5219 147° Southeast 247 284 25,100  Level Atlanta Center
01:00PM 35.0761 -81.4756 147° Southeast 242 278 25,100  Level Atlanta Center
01:01PM 35.0167 -81.4267 146° Southeast 242 278 25,100  Level Atlanta Center
01:03PM 34.9139 -81.3483 148° Southeast 245 282 25,100  Level Jacksonville Center
01:04PM 34.8592 -81.3011 145° Southeast 245 282 25,100  Level Jacksonville Center
01:05PM 34.8000 -81.2567 148° Southeast 245 282 25,100  Level Jacksonville Center
01:06PM 34.7431 -81.2125 147° Southeast 245 282 25,100  Level Jacksonville Center
01:07PM 34.6883 -81.1656 145° Southeast 245 282 25,100  Level Jacksonville Center
01:08PM 34.6314 -81.1211 147° Southeast 245 282 25,100  Level Jacksonville Center
01:09PM 34.5744 -81.0794 149° Southeast 238 274 25,100  Level Jacksonville Center
01:10PM 34.5133 -81.0306 147° Southeast 238 274 25,100  Level Jacksonville Center
01:11PM 34.4561 -80.9839 146° Southeast 238 274 25,100  Level Jacksonville Center
01:12PM 34.3992 -80.9422 149° Southeast 243 280 25,100  Level Jacksonville Center
01:13PM 34.3422 -80.8983 148° Southeast 237 273 25,100  Level Jacksonville Center
01:14PM 34.2853 -80.8519 146° Southeast 242 278 25,100  Level Jacksonville Center
01:15PM 34.2386 -80.8103 144° Southeast 242 278 25,100  Level Jacksonville Center
01:16PM 34.1817 -80.7664 147° Southeast 242 278 25,100  Level Jacksonville Center
01:17PM 34.1225 -80.7253 150° Southeast 242 278 25,100  Level Jacksonville Center
01:18PM 34.0653 -80.6767 145° Southeast 242 278 25,100  Level Jacksonville Center
01:19PM 34.0103 -80.6353 148° Southeast 242 278 25,100 -420 Level Jacksonville Center
01:20PM 33.9511 -80.5892 147° Southeast 242 278 24,300 -1,020 Descending Jacksonville Center
01:21PM 33.8875 -80.5433 149° Southeast 249 287 23,100 -1,320 Descending Jacksonville Center
01:22PM 33.8219 -80.4903 146° Southeast 269 310 21,700 -1,500 Descending Jacksonville Center
01:23PM 33.7583 -80.4394 146° Southeast 274 315 20,100 -1,680 Descending Jacksonville Center
01:24PM 33.6947 -80.3914 148° Southeast 274 315 18,400 -1,800 Descending Jacksonville Center
01:25PM 33.6394 -80.3406 143° Southeast 269 310 16,500 -1,860 Descending Jacksonville Center
01:26PM 33.5819 -80.2847 141° Southeast 264 304 14,700 -1,800 Descending Jacksonville Center
01:27PM 33.5244 -80.2317 142° Southeast 264 304 12,900 -1,680 Descending Jacksonville Center
01:28PM 33.4692 -80.1761 140° Southeast 264 304 11,400 -1,620 Descending Jacksonville Center
01:29PM 33.4158 -80.1231 140° Southeast 254 292 9,700 -1,800 Descending Jacksonville Center
01:30PM 33.3603 -80.0700 141° Southeast 254 292 7,900 -1,740 Descending Jacksonville Center
01:31PM 33.3069 -80.0169 140° Southeast 254 292 6,300 -1,200 Descending Jacksonville Center
01:32PM 33.2619 -79.9639 135° Southeast 244 281 5,600 -660 Descending Jacksonville Center
01:33PM 33.2150 -79.9181 141° Southeast 231 266 5,000 -660 Descending Jacksonville Center
01:34PM 33.1700 -79.8725 140° Southeast 220 253 4,300 -720 Descending Jacksonville Center
01:36PM 33.1013 -79.8498 151° Southeast  Level Estimated
01:43PM 32.8978 -79.7829 140° Southeast  Level Estimated
01:44PM 32.8978 -79.7829 140° Southeast  Level Estimated